Time,TemperatureF,DewpointF,PressureIn,WindDirection,WindDirectionDegrees,WindSpeedMPH,WindSpeedGustMPH,Humidity,HourlyPrecipIn,Conditions,Clouds,dailyrainin,SoftwareType,DateUTC
2013-02-28 00:09:00,52.7,46.0,29.87,North,0,3.8,-999.0,78,-99.99,,,0.00,Acu-Link.com,2013-02-28 06:09:00,
2013-02-28 00:25:00,52.5,45.5,29.87,NW,315,3.1,-999.0,77,-99.99,,,0.00,Acu-Link.com,2013-02-28 06:25:00,
2013-02-28 00:40:00,51.6,45.0,29.87,NE,45,2.2,-999.0,78,-99.99,,,0.00,Acu-Link.com,2013-02-28 06:40:00,
2013-02-28 00:55:00,51.3,44.0,29.87,NW,315,3.8,-999.0,76,-99.99,,,0.00,Acu-Link.com,2013-02-28 06:55:00,
2013-02-28 01:11:00,50.9,43.6,29.88,NNW,337,4.3,-999.0,76,-99.99,,,0.00,Acu-Link.com,2013-02-28 07:11:00,
2013-02-28 01:26:00,50.0,43.4,29.88,West,270,2.2,-999.0,78,-99.99,,,0.00,Acu-Link.com,2013-02-28 07:26:00,
2013-02-28 01:41:00,48.9,42.7,29.88,NNE,22,1.6,-999.0,79,-99.99,,,0.00,Acu-Link.com,2013-02-28 07:41:00,
2013-02-28 01:56:00,48.4,42.5,29.89,NNW,337,2.7,-999.0,80,-99.99,,,0.00,Acu-Link.com,2013-02-28 07:56:00,
2013-02-28 02:12:00,48.0,42.1,29.89,NE,45,2.7,-999.0,80,-99.99,,,0.00,Acu-Link.com,2013-02-28 08:12:00,
2013-02-28 02:27:00,47.3,41.8,29.88,NW,315,0.0,-999.0,81,-99.99,,,0.00,Acu-Link.com,2013-02-28 08:27:00,
2013-02-28 02:42:00,46.4,41.2,29.88,NNE,22,3.8,-999.0,82,-99.99,,,0.00,Acu-Link.com,2013-02-28 08:42:00,
2013-02-28 02:58:00,46.0,41.5,29.88,NNW,337,1.6,-999.0,84,-99.99,,,0.00,Acu-Link.com,2013-02-28 08:58:00,
2013-02-28 03:18:00,46.0,42.1,29.88,NNW,337,2.2,-999.0,86,-99.99,,,0.00,Acu-Link.com,2013-02-28 09:18:00,
2013-02-28 03:34:00,45.1,41.8,29.88,NNW,337,1.1,-999.0,88,-99.99,,,0.00,Acu-Link.com,2013-02-28 09:34:00,
2013-02-28 03:49:00,44.1,43.5,29.88,West,270,0.0,-999.0,98,-99.99,,,0.00,Acu-Link.com,2013-02-28 09:49:00,
2013-02-28 04:04:00,42.8,42.3,29.88,West,270,0.0,-999.0,98,-99.99,,,0.00,Acu-Link.com,2013-02-28 10:04:00,
2013-02-28 04:19:00,41.9,41.4,29.87,West,270,0.0,-999.0,98,-99.99,,,0.00,Acu-Link.com,2013-02-28 10:19:00,
2013-02-28 04:35:00,41.0,40.5,29.87,West,270,0.0,-999.0,98,-99.99,,,0.00,Acu-Link.com,2013-02-28 10:35:00,
2013-02-28 04:50:00,40.3,39.8,29.88,WSW,247,0.0,-999.0,98,-99.99,,,0.00,Acu-Link.com,2013-02-28 10:50:00,
2013-02-28 05:05:00,40.3,39.8,29.89,NE,45,0.0,-999.0,98,-99.99,,,0.00,Acu-Link.com,2013-02-28 11:05:00,
2013-02-28 05:20:00,40.8,40.3,29.89,NNE,22,4.7,-999.0,98,-99.99,,,0.00,Acu-Link.com,2013-02-28 11:20:00,
2013-02-28 05:36:00,41.7,41.2,29.89,North,0,2.7,-999.0,98,-99.99,,,0.00,Acu-Link.com,2013-02-28 11:36:00,
2013-02-28 05:51:00,41.9,41.4,29.90,NW,315,0.0,-999.0,98,-99.99,,,0.00,Acu-Link.com,2013-02-28 11:51:00,
2013-02-28 06:06:00,41.2,40.7,29.91,WNW,292,0.0,-999.0,98,-99.99,,,0.00,Acu-Link.com,2013-02-28 12:06:00,
2013-02-28 06:21:00,40.6,40.1,29.91,NE,45,0.0,-999.0,98,-99.99,,,0.00,Acu-Link.com,2013-02-28 12:21:00,
2013-02-28 06:36:00,40.5,39.9,29.91,West,270,1.6,-999.0,98,-99.99,,,0.00,Acu-Link.com,2013-02-28 12:36:00,
2013-02-28 06:52:00,41.5,41.0,29.92,NW,315,2.2,-999.0,98,-99.99,,,0.00,Acu-Link.com,2013-02-28 12:52:00,
2013-02-28 07:07:00,42.4,41.9,29.93,SW,225,2.7,-999.0,98,-99.99,,,0.00,Acu-Link.com,2013-02-28 13:07:00,
2013-02-28 07:22:00,45.1,44.6,29.95,NE,45,2.2,-999.0,98,-99.99,,,0.00,Acu-Link.com,2013-02-28 13:22:00,
2013-02-28 07:37:00,46.0,43.0,29.95,NNE,22,2.7,-999.0,89,-99.99,,,0.00,Acu-Link.com,2013-02-28 13:37:00,
2013-02-28 07:53:00,47.1,42.5,29.95,NW,315,5.1,-999.0,84,-99.99,,,0.00,Acu-Link.com,2013-02-28 13:53:00,
2013-02-28 08:08:00,47.8,42.9,29.96,NNE,22,4.7,-999.0,83,-99.99,,,0.00,Acu-Link.com,2013-02-28 14:08:00,
2013-02-28 08:23:00,47.3,41.4,29.96,NNE,22,8.3,-999.0,80,-99.99,,,0.00,Acu-Link.com,2013-02-28 14:23:00,
2013-02-28 08:39:00,46.9,41.4,29.97,NE,45,3.1,-999.0,81,-99.99,,,0.00,Acu-Link.com,2013-02-28 14:39:00,
2013-02-28 08:54:00,47.1,41.6,29.97,NNE,22,4.7,-999.0,81,-99.99,,,0.00,Acu-Link.com,2013-02-28 14:54:00,
2013-02-28 09:09:00,47.5,41.0,29.98,NNE,22,5.8,-999.0,78,-99.99,,,0.00,Acu-Link.com,2013-02-28 15:09:00,
2013-02-28 09:24:00,49.1,42.9,29.98,NNW,337,4.3,-999.0,79,-99.99,,,0.00,Acu-Link.com,2013-02-28 15:24:00,
2013-02-28 09:39:00,49.1,41.5,29.98,NW,315,3.1,-999.0,75,-99.99,,,0.00,Acu-Link.com,2013-02-28 15:39:00,
2013-02-28 09:55:00,49.8,42.2,29.97,West,270,5.1,-999.0,75,-99.99,,,0.00,Acu-Link.com,2013-02-28 15:55:00,
2013-02-28 10:10:00,49.8,41.5,29.98,North,0,8.9,-999.0,73,-99.99,,,0.00,Acu-Link.com,2013-02-28 16:10:00,
2013-02-28 10:25:00,49.6,41.0,29.98,NE,45,6.3,-999.0,72,-99.99,,,0.00,Acu-Link.com,2013-02-28 16:25:00,
2013-02-28 10:40:00,50.2,41.9,29.99,West,270,4.3,-999.0,73,-99.99,,,0.00,Acu-Link.com,2013-02-28 16:40:00,
2013-02-28 10:56:00,50.0,41.3,29.97,NNE,22,6.7,-999.0,72,-99.99,,,0.00,Acu-Link.com,2013-02-28 16:56:00,
2013-02-28 11:11:00,49.8,41.2,29.97,North,0,3.8,-999.0,72,-99.99,,,0.00,Acu-Link.com,2013-02-28 17:11:00,
2013-02-28 11:26:00,50.9,40.7,29.98,West,270,2.7,-999.0,68,-99.99,,,0.00,Acu-Link.com,2013-02-28 17:26:00,
2013-02-28 11:42:00,51.3,40.7,29.97,NNE,22,2.7,-999.0,67,-99.99,,,0.00,Acu-Link.com,2013-02-28 17:42:00,
2013-02-28 11:57:00,51.3,39.5,29.96,WNW,292,5.1,-999.0,64,-99.99,,,0.00,Acu-Link.com,2013-02-28 17:57:00,
2013-02-28 12:12:00,51.4,38.9,29.96,NNW,337,5.1,-999.0,62,-99.99,,,0.00,Acu-Link.com,2013-02-28 18:12:00,
2013-02-28 12:28:00,51.3,39.1,29.95,North,0,4.3,-999.0,63,-99.99,,,0.00,Acu-Link.com,2013-02-28 18:28:00,
2013-02-28 12:43:00,51.8,38.4,29.94,North,0,5.1,-999.0,60,-99.99,,,0.00,Acu-Link.com,2013-02-28 18:43:00,
2013-02-28 12:58:00,52.2,39.1,29.93,NNW,337,3.8,-999.0,61,-99.99,,,0.00,Acu-Link.com,2013-02-28 18:58:00,
2013-02-28 13:13:00,51.6,37.3,29.93,WSW,247,5.8,-999.0,58,-99.99,,,0.00,Acu-Link.com,2013-02-28 19:13:00,
2013-02-28 13:28:00,52.5,37.7,29.92,NE,45,5.8,-999.0,57,-99.99,,,0.00,Acu-Link.com,2013-02-28 19:28:00,
2013-02-28 13:44:00,51.4,37.2,29.91,NNE,22,7.8,-999.0,58,-99.99,,,0.00,Acu-Link.com,2013-02-28 19:44:00,
2013-02-28 13:59:00,51.8,37.9,29.91,North,0,4.3,-999.0,59,-99.99,,,0.00,Acu-Link.com,2013-02-28 19:59:00,
2013-02-28 14:14:00,52.0,37.7,29.90,WNW,292,5.8,-999.0,58,-99.99,,,0.00,Acu-Link.com,2013-02-28 20:14:00,
2013-02-28 14:30:00,52.0,39.0,29.91,NE,45,2.7,-999.0,61,-99.99,,,0.00,Acu-Link.com,2013-02-28 20:30:00,
2013-02-28 14:45:00,52.3,38.9,29.91,North,0,4.3,-999.0,60,-99.99,,,0.00,Acu-Link.com,2013-02-28 20:45:00,
2013-02-28 15:00:00,51.8,37.9,29.91,ENE,67,3.8,-999.0,59,-99.99,,,0.00,Acu-Link.com,2013-02-28 21:00:00,
2013-02-28 15:16:00,52.0,39.0,29.90,NNE,22,2.7,-999.0,61,-99.99,,,0.00,Acu-Link.com,2013-02-28 21:16:00,
2013-02-28 15:31:00,52.2,39.1,29.89,NW,315,4.3,-999.0,61,-99.99,,,0.00,Acu-Link.com,2013-02-28 21:31:00,
2013-02-28 15:46:00,51.8,38.8,29.89,NNE,22,6.3,-999.0,61,-99.99,,,0.00,Acu-Link.com,2013-02-28 21:46:00,
2013-02-28 16:01:00,52.0,39.0,29.89,NNE,22,2.7,-999.0,61,-99.99,,,0.00,Acu-Link.com,2013-02-28 22:01:00,
2013-02-28 16:16:00,52.7,40.1,29.88,East,90,0.0,-999.0,62,-99.99,,,0.00,Acu-Link.com,2013-02-28 22:16:00,
2013-02-28 16:32:00,52.9,39.4,29.89,NNW,337,2.2,-999.0,60,-99.99,,,0.00,Acu-Link.com,2013-02-28 22:32:00,
2013-02-28 16:47:00,53.4,39.5,29.88,NNW,337,2.7,-999.0,59,-99.99,,,0.00,Acu-Link.com,2013-02-28 22:47:00,
2013-02-28 17:02:00,53.2,39.3,29.88,NNW,337,3.8,-999.0,59,-99.99,,,0.00,Acu-Link.com,2013-02-28 23:02:00,
2013-02-28 17:18:00,52.7,40.1,29.89,NW,315,1.1,-999.0,62,-99.99,,,0.00,Acu-Link.com,2013-02-28 23:18:00,
2013-02-28 17:33:00,52.2,40.0,29.89,NNW,337,1.6,-999.0,63,-99.99,,,0.00,Acu-Link.com,2013-02-28 23:33:00,
2013-02-28 17:48:00,51.4,40.1,29.89,WNW,292,1.6,-999.0,65,-99.99,,,0.00,Acu-Link.com,2013-02-28 23:48:00,
2013-02-28 18:04:00,50.7,39.4,29.89,NE,45,3.1,-999.0,65,-99.99,,,0.00,Acu-Link.com,2013-03-01 00:04:00,
2013-02-28 18:19:00,50.7,38.2,29.90,North,0,3.1,-999.0,62,-99.99,,,0.00,Acu-Link.com,2013-03-01 00:19:00,
2013-02-28 18:34:00,50.2,37.7,29.91,North,0,3.1,-999.0,62,-99.99,,,0.00,Acu-Link.com,2013-03-01 00:34:00,
2013-02-28 18:49:00,49.5,38.6,29.91,NNE,22,0.0,-999.0,66,-99.99,,,0.00,Acu-Link.com,2013-03-01 00:49:00,
2013-02-28 19:05:00,48.4,39.8,29.91,WNW,292,0.0,-999.0,72,-99.99,,,0.00,Acu-Link.com,2013-03-01 01:05:00,
2013-02-28 19:20:00,46.9,39.8,29.91,WNW,292,0.0,-999.0,76,-99.99,,,0.00,Acu-Link.com,2013-03-01 01:20:00,
2013-02-28 19:35:00,45.7,41.4,29.92,South,180,0.0,-999.0,85,-99.99,,,0.00,Acu-Link.com,2013-03-01 01:35:00,
2013-02-28 19:50:00,45.0,40.4,29.91,SW,225,0.0,-999.0,84,-99.99,,,0.00,Acu-Link.com,2013-03-01 01:50:00,
2013-02-28 20:06:00,44.6,44.1,29.92,WSW,247,0.0,-999.0,98,-99.99,,,0.00,Acu-Link.com,2013-03-01 02:06:00,
2013-02-28 20:21:00,44.4,43.9,29.93,WSW,247,1.6,-999.0,98,-99.99,,,0.00,Acu-Link.com,2013-03-01 02:21:00,
2013-02-28 20:36:00,44.2,43.7,29.94,SW,225,0.0,-999.0,98,-99.99,,,0.00,Acu-Link.com,2013-03-01 02:36:00,
2013-02-28 20:51:00,44.2,43.7,29.94,SW,225,0.0,-999.0,98,-99.99,,,0.00,Acu-Link.com,2013-03-01 02:51:00,
2013-02-28 21:07:00,43.9,43.4,29.94,WSW,247,0.0,-999.0,98,-99.99,,,0.00,Acu-Link.com,2013-03-01 03:07:00,
2013-02-28 21:22:00,44.1,43.5,29.95,WNW,292,0.0,-999.0,98,-99.99,,,0.00,Acu-Link.com,2013-03-01 03:22:00,
2013-02-28 21:37:00,44.2,43.7,29.94,WNW,292,0.0,-999.0,98,-99.99,,,0.00,Acu-Link.com,2013-03-01 03:37:00,
2013-02-28 21:52:00,44.2,43.7,29.94,SW,225,0.0,-999.0,98,-99.99,,,0.00,Acu-Link.com,2013-03-01 03:52:00,
2013-02-28 22:08:00,44.1,43.5,29.95,SW,225,0.0,-999.0,98,-99.99,,,0.00,Acu-Link.com,2013-03-01 04:08:00,
2013-02-28 22:23:00,44.1,43.5,29.95,SW,225,0.0,-999.0,98,-99.99,,,0.00,Acu-Link.com,2013-03-01 04:23:00,
2013-02-28 22:38:00,43.9,43.4,29.94,WSW,247,1.1,-999.0,98,-99.99,,,0.00,Acu-Link.com,2013-03-01 04:38:00,
2013-02-28 22:54:00,43.7,43.2,29.94,SW,225,2.2,-999.0,98,-99.99,,,0.00,Acu-Link.com,2013-03-01 04:54:00,
2013-02-28 23:09:00,43.5,43.0,29.94,SW,225,1.6,-999.0,98,-99.99,,,0.00,Acu-Link.com,2013-03-01 05:09:00,
2013-02-28 23:24:00,43.2,42.6,29.94,West,270,1.6,-999.0,98,-99.99,,,0.00,Acu-Link.com,2013-03-01 05:24:00,
2013-02-28 23:40:00,42.3,41.7,29.94,SW,225,0.0,-999.0,98,-99.99,,,0.00,Acu-Link.com,2013-03-01 05:40:00,
2013-02-28 23:55:00,41.4,40.8,29.93,SSW,202,0.0,-999.0,98,-99.99,,,0.00,Acu-Link.com,2013-03-01 05:55:00,